sensor_id;sensor_type;location;lat;lon;timestamp;temperature;humidity
14172;DHT22;7165;52.388;4.928;2023-09-12T00:00:01;19.80;99.90
14172;DHT22;7165;52.388;4.928;2023-09-12T00:02:31;19.70;99.90
14172;DHT22;7165;52.388;4.928;2023-09-12T00:04:58;19.70;99.90
14172;DHT22;7165;52.388;4.928;2023-09-12T00:07:25;19.70;99.90
14172;DHT22;7165;52.388;4.928;2023-09-12T00:09:51;19.60;99.90
14172;DHT22;7165;52.388;4.928;2023-09-12T00:12:18;19.60;99.90
14172;DHT22;7165;52.388;4.928;2023-09-12T00:14:48;19.50;99.90
14172;DHT22;7165;52.388;4.928;2023-09-12T00:17:14;19.50;99.90
14172;DHT22;7165;52.388;4.928;2023-09-12T00:19:43;19.50;99.90
14172;DHT22;7165;52.388;4.928;2023-09-12T00:22:10;19.50;99.90
14172;DHT22;7165;52.388;4.928;2023-09-12T00:24:36;19.50;99.90
14172;DHT22;7165;52.388;4.928;2023-09-12T00:27:03;19.40;99.90
14172;DHT22;7165;52.388;4.928;2023-09-12T00:29:31;19.40;99.90
14172;DHT22;7165;52.388;4.928;2023-09-12T00:31:57;19.40;99.90
14172;DHT22;7165;52.388;4.928;2023-09-12T00:34:24;19.40;99.90
14172;DHT22;7165;52.388;4.928;2023-09-12T00:36:51;19.30;99.90
14172;DHT22;7165;52.388;4.928;2023-09-12T00:39:18;19.30;99.90
14172;DHT22;7165;52.388;4.928;2023-09-12T00:41:44;19.40;99.90
14172;DHT22;7165;52.388;4.928;2023-09-12T00:44:11;19.30;99.90
14172;DHT22;7165;52.388;4.928;2023-09-12T00:46:37;19.30;99.90
14172;DHT22;7165;52.388;4.928;2023-09-12T00:49:04;19.30;99.90
14172;DHT22;7165;52.388;4.928;2023-09-12T00:51:32;19.30;99.90
14172;DHT22;7165;52.388;4.928;2023-09-12T00:54:01;19.20;99.90
14172;DHT22;7165;52.388;4.928;2023-09-12T00:56:27;19.20;99.90
14172;DHT22;7165;52.388;4.928;2023-09-12T00:58:55;19.10;99.90
14172;DHT22;7165;52.388;4.928;2023-09-12T01:01:21;19.10;99.90
14172;DHT22;7165;52.388;4.928;2023-09-12T01:03:48;19.10;99.90
14172;DHT22;7165;52.388;4.928;2023-09-12T01:06:15;19.10;99.90
14172;DHT22;7165;52.388;4.928;2023-09-12T01:08:45;19.00;99.90
14172;DHT22;7165;52.388;4.928;2023-09-12T01:11:14;19.00;99.90
14172;DHT22;7165;52.388;4.928;2023-09-12T01:13:40;19.00;99.90
14172;DHT22;7165;52.388;4.928;2023-09-12T01:16:07;18.90;99.90
14172;DHT22;7165;52.388;4.928;2023-09-12T01:18:33;18.90;99.90
14172;DHT22;7165;52.388;4.928;2023-09-12T01:21:19;18.90;99.90
14172;DHT22;7165;52.388;4.928;2023-09-12T01:23:52;18.80;99.90
14172;DHT22;7165;52.388;4.928;2023-09-12T01:26:29;18.70;99.90
14172;DHT22;7165;52.388;4.928;2023-09-12T01:28:57;18.70;99.90
14172;DHT22;7165;52.388;4.928;2023-09-12T01:31:24;18.60;99.90
14172;DHT22;7165;52.388;4.928;2023-09-12T01:33:57;18.60;99.90
14172;DHT22;7165;52.388;4.928;2023-09-12T01:36:23;18.60;99.90
14172;DHT22;7165;52.388;4.928;2023-09-12T01:38:50;18.50;99.90
14172;DHT22;7165;52.388;4.928;2023-09-12T01:41:16;18.50;99.90
14172;DHT22;7165;52.388;4.928;2023-09-12T01:43:43;18.60;99.90
14172;DHT22;7165;52.388;4.928;2023-09-12T01:46:11;18.60;99.90
14172;DHT22;7165;52.388;4.928;2023-09-12T01:48:39;18.60;99.90
14172;DHT22;7165;52.388;4.928;2023-09-12T01:51:06;18.70;99.90
14172;DHT22;7165;52.388;4.928;2023-09-12T01:53:33;18.70;99.90
14172;DHT22;7165;52.388;4.928;2023-09-12T01:55:59;18.70;99.90
14172;DHT22;7165;52.388;4.928;2023-09-12T01:58:26;18.70;99.90
14172;DHT22;7165;52.388;4.928;2023-09-12T02:00:52;18.80;99.90
14172;DHT22;7165;52.388;4.928;2023-09-12T02:03:20;18.80;99.90
14172;DHT22;7165;52.388;4.928;2023-09-12T02:05:47;18.80;99.90
14172;DHT22;7165;52.388;4.928;2023-09-12T02:08:13;18.90;99.90
14172;DHT22;7165;52.388;4.928;2023-09-12T02:10:40;18.90;99.90
14172;DHT22;7165;52.388;4.928;2023-09-12T02:13:06;18.90;99.90
14172;DHT22;7165;52.388;4.928;2023-09-12T02:15:33;18.90;99.90
14172;DHT22;7165;52.388;4.928;2023-09-12T02:17:59;18.90;99.90
14172;DHT22;7165;52.388;4.928;2023-09-12T02:20:27;18.90;99.90
14172;DHT22;7165;52.388;4.928;2023-09-12T02:22:54;18.90;99.90
14172;DHT22;7165;52.388;4.928;2023-09-12T02:25:20;18.80;99.90
14172;DHT22;7165;52.388;4.928;2023-09-12T02:27:47;18.80;99.90
14172;DHT22;7165;52.388;4.928;2023-09-12T02:30:13;18.80;99.90
14172;DHT22;7165;52.388;4.928;2023-09-12T02:32:41;18.80;99.90
14172;DHT22;7165;52.388;4.928;2023-09-12T02:35:07;18.70;99.90
14172;DHT22;7165;52.388;4.928;2023-09-12T02:37:35;18.70;99.90
14172;DHT22;7165;52.388;4.928;2023-09-12T02:40:02;18.80;99.90
14172;DHT22;7165;52.388;4.928;2023-09-12T02:42:29;18.80;99.90
14172;DHT22;7165;52.388;4.928;2023-09-12T02:44:56;18.80;99.90
14172;DHT22;7165;52.388;4.928;2023-09-12T02:47:22;18.80;99.90
14172;DHT22;7165;52.388;4.928;2023-09-12T02:49:49;18.80;99.90
14172;DHT22;7165;52.388;4.928;2023-09-12T02:52:15;18.80;99.90
14172;DHT22;7165;52.388;4.928;2023-09-12T02:54:43;18.80;99.90
14172;DHT22;7165;52.388;4.928;2023-09-12T02:57:10;18.80;99.90
14172;DHT22;7165;52.388;4.928;2023-09-12T02:59:36;18.80;99.90
14172;DHT22;7165;52.388;4.928;2023-09-12T03:02:03;18.80;99.90
14172;DHT22;7165;52.388;4.928;2023-09-12T03:04:29;18.70;99.90
14172;DHT22;7165;52.388;4.928;2023-09-12T03:06:56;18.70;99.90
14172;DHT22;7165;52.388;4.928;2023-09-12T03:09:22;18.70;99.90
14172;DHT22;7165;52.388;4.928;2023-09-12T03:11:50;18.70;99.90
14172;DHT22;7165;52.388;4.928;2023-09-12T03:14:17;18.70;99.90
14172;DHT22;7165;52.388;4.928;2023-09-12T03:16:43;18.70;99.90
14172;DHT22;7165;52.388;4.928;2023-09-12T03:19:10;18.70;99.90
14172;DHT22;7165;52.388;4.928;2023-09-12T03:21:36;18.70;99.90
14172;DHT22;7165;52.388;4.928;2023-09-12T03:24:04;18.70;99.90
14172;DHT22;7165;52.388;4.928;2023-09-12T03:26:33;18.60;99.90
14172;DHT22;7165;52.388;4.928;2023-09-12T03:29:00;18.60;99.90
14172;DHT22;7165;52.388;4.928;2023-09-12T03:31:27;18.60;99.90
14172;DHT22;7165;52.388;4.928;2023-09-12T03:33:54;18.60;99.90
14172;DHT22;7165;52.388;4.928;2023-09-12T03:36:20;18.60;99.90
14172;DHT22;7165;52.388;4.928;2023-09-12T03:38:47;18.60;99.90
14172;DHT22;7165;52.388;4.928;2023-09-12T03:41:13;18.50;99.90
14172;DHT22;7165;52.388;4.928;2023-09-12T03:43:40;18.50;99.90
14172;DHT22;7165;52.388;4.928;2023-09-12T03:46:08;18.50;99.90
14172;DHT22;7165;52.388;4.928;2023-09-12T03:48:34;18.50;99.90
14172;DHT22;7165;52.388;4.928;2023-09-12T03:51:02;18.60;99.90
14172;DHT22;7165;52.388;4.928;2023-09-12T03:53:29;18.60;99.90
14172;DHT22;7165;52.388;4.928;2023-09-12T03:55:57;18.60;99.90
14172;DHT22;7165;52.388;4.928;2023-09-12T03:58:23;18.60;99.90
14172;DHT22;7165;52.388;4.928;2023-09-12T04:00:50;18.60;99.90
14172;DHT22;7165;52.388;4.928;2023-09-12T04:03:18;18.60;99.90
14172;DHT22;7165;52.388;4.928;2023-09-12T04:05:46;18.60;99.90
14172;DHT22;7165;52.388;4.928;2023-09-12T04:08:12;18.50;99.90
14172;DHT22;7165;52.388;4.928;2023-09-12T04:10:39;18.60;99.90
14172;DHT22;7165;52.388;4.928;2023-09-12T04:13:06;18.60;99.90
14172;DHT22;7165;52.388;4.928;2023-09-12T04:15:32;18.60;99.90
14172;DHT22;7165;52.388;4.928;2023-09-12T04:17:59;18.60;99.90
14172;DHT22;7165;52.388;4.928;2023-09-12T04:20:27;18.60;99.90
14172;DHT22;7165;52.388;4.928;2023-09-12T04:22:54;18.60;99.90
14172;DHT22;7165;52.388;4.928;2023-09-12T04:25:20;18.70;99.90
14172;DHT22;7165;52.388;4.928;2023-09-12T04:27:47;18.70;99.90
14172;DHT22;7165;52.388;4.928;2023-09-12T04:30:13;18.70;99.90
14172;DHT22;7165;52.388;4.928;2023-09-12T04:32:40;18.60;99.90
14172;DHT22;7165;52.388;4.928;2023-09-12T04:35:06;18.70;99.90
14172;DHT22;7165;52.388;4.928;2023-09-12T04:37:34;18.60;99.90
14172;DHT22;7165;52.388;4.928;2023-09-12T04:40:01;18.70;99.90
14172;DHT22;7165;52.388;4.928;2023-09-12T04:42:30;18.70;99.90
14172;DHT22;7165;52.388;4.928;2023-09-12T04:44:57;18.70;99.90
14172;DHT22;7165;52.388;4.928;2023-09-12T04:47:23;18.70;99.90
14172;DHT22;7165;52.388;4.928;2023-09-12T04:49:50;18.70;99.90
14172;DHT22;7165;52.388;4.928;2023-09-12T04:52:16;18.70;99.90
14172;DHT22;7165;52.388;4.928;2023-09-12T04:54:44;18.70;99.90
14172;DHT22;7165;52.388;4.928;2023-09-12T04:57:11;18.70;99.90
14172;DHT22;7165;52.388;4.928;2023-09-12T04:59:38;18.70;99.90
14172;DHT22;7165;52.388;4.928;2023-09-12T05:02:04;18.80;99.90
14172;DHT22;7165;52.388;4.928;2023-09-12T05:04:31;18.80;99.90
14172;DHT22;7165;52.388;4.928;2023-09-12T05:06:57;18.80;99.90
14172;DHT22;7165;52.388;4.928;2023-09-12T05:09:24;18.80;99.90
14172;DHT22;7165;52.388;4.928;2023-09-12T05:11:52;18.80;99.90
14172;DHT22;7165;52.388;4.928;2023-09-12T05:14:18;18.80;99.90
14172;DHT22;7165;52.388;4.928;2023-09-12T05:16:45;18.80;99.90
14172;DHT22;7165;52.388;4.928;2023-09-12T05:19:11;18.80;99.90
14172;DHT22;7165;52.388;4.928;2023-09-12T05:21:38;18.80;99.90
14172;DHT22;7165;52.388;4.928;2023-09-12T05:24:04;18.80;99.90
14172;DHT22;7165;52.388;4.928;2023-09-12T05:26:31;18.90;99.90
14172;DHT22;7165;52.388;4.928;2023-09-12T05:28:59;18.90;99.90
14172;DHT22;7165;52.388;4.928;2023-09-12T05:31:25;18.90;99.90
14172;DHT22;7165;52.388;4.928;2023-09-12T05:33:51;18.90;99.90
14172;DHT22;7165;52.388;4.928;2023-09-12T05:36:18;18.90;99.90
14172;DHT22;7165;52.388;4.928;2023-09-12T05:38:44;18.90;99.90
14172;DHT22;7165;52.388;4.928;2023-09-12T05:41:11;18.90;99.90
14172;DHT22;7165;52.388;4.928;2023-09-12T05:43:37;18.90;99.90
14172;DHT22;7165;52.388;4.928;2023-09-12T05:46:05;19.00;99.90
14172;DHT22;7165;52.388;4.928;2023-09-12T05:48:32;19.00;99.90
14172;DHT22;7165;52.388;4.928;2023-09-12T05:50:58;19.00;99.90
14172;DHT22;7165;52.388;4.928;2023-09-12T05:53:25;19.00;99.90
14172;DHT22;7165;52.388;4.928;2023-09-12T05:55:51;19.00;99.90
14172;DHT22;7165;52.388;4.928;2023-09-12T05:58:18;19.00;99.90
14172;DHT22;7165;52.388;4.928;2023-09-12T06:00:44;19.10;99.90
14172;DHT22;7165;52.388;4.928;2023-09-12T06:03:15;19.10;99.90
14172;DHT22;7165;52.388;4.928;2023-09-12T06:05:41;19.10;99.90
14172;DHT22;7165;52.388;4.928;2023-09-12T06:08:08;19.10;99.90
14172;DHT22;7165;52.388;4.928;2023-09-12T06:10:34;19.10;99.90
14172;DHT22;7165;52.388;4.928;2023-09-12T06:13:01;19.20;99.90
14172;DHT22;7165;52.388;4.928;2023-09-12T06:15:28;19.20;99.90
14172;DHT22;7165;52.388;4.928;2023-09-12T06:17:54;19.30;99.90
14172;DHT22;7165;52.388;4.928;2023-09-12T06:20:22;19.30;99.90
14172;DHT22;7165;52.388;4.928;2023-09-12T06:22:49;19.30;99.90
14172;DHT22;7165;52.388;4.928;2023-09-12T06:25:15;19.30;99.90
14172;DHT22;7165;52.388;4.928;2023-09-12T06:27:42;19.30;99.90
14172;DHT22;7165;52.388;4.928;2023-09-12T06:30:09;19.40;99.90
14172;DHT22;7165;52.388;4.928;2023-09-12T06:32:35;19.40;99.90
14172;DHT22;7165;52.388;4.928;2023-09-12T06:35:06;19.40;99.90
14172;DHT22;7165;52.388;4.928;2023-09-12T06:37:34;19.40;99.90
14172;DHT22;7165;52.388;4.928;2023-09-12T06:40:00;19.40;99.90
14172;DHT22;7165;52.388;4.928;2023-09-12T06:42:28;19.50;99.90
14172;DHT22;7165;52.388;4.928;2023-09-12T06:44:55;19.50;99.90
14172;DHT22;7165;52.388;4.928;2023-09-12T06:47:21;19.50;99.90
14172;DHT22;7165;52.388;4.928;2023-09-12T06:49:48;19.50;99.90
14172;DHT22;7165;52.388;4.928;2023-09-12T06:52:14;19.60;99.90
14172;DHT22;7165;52.388;4.928;2023-09-12T06:54:42;19.60;99.90
14172;DHT22;7165;52.388;4.928;2023-09-12T06:57:09;19.60;99.90
14172;DHT22;7165;52.388;4.928;2023-09-12T06:59:35;19.60;99.90
14172;DHT22;7165;52.388;4.928;2023-09-12T07:02:02;19.60;99.90
14172;DHT22;7165;52.388;4.928;2023-09-12T07:04:29;19.70;99.90
14172;DHT22;7165;52.388;4.928;2023-09-12T07:06:55;19.70;99.90
14172;DHT22;7165;52.388;4.928;2023-09-12T07:09:23;19.80;99.90
14172;DHT22;7165;52.388;4.928;2023-09-12T07:11:51;19.90;99.90
14172;DHT22;7165;52.388;4.928;2023-09-12T07:14:17;19.90;99.90
14172;DHT22;7165;52.388;4.928;2023-09-12T07:16:44;20.00;99.90
14172;DHT22;7165;52.388;4.928;2023-09-12T07:19:10;20.10;99.90
14172;DHT22;7165;52.388;4.928;2023-09-12T07:21:37;20.20;99.90
14172;DHT22;7165;52.388;4.928;2023-09-12T07:24:03;20.20;99.90
14172;DHT22;7165;52.388;4.928;2023-09-12T07:26:31;20.30;99.90
14172;DHT22;7165;52.388;4.928;2023-09-12T07:28:58;20.40;99.90
14172;DHT22;7165;52.388;4.928;2023-09-12T07:31:28;20.50;99.90
14172;DHT22;7165;52.388;4.928;2023-09-12T07:33:54;20.60;99.90
14172;DHT22;7165;52.388;4.928;2023-09-12T07:36:21;20.80;99.90
14172;DHT22;7165;52.388;4.928;2023-09-12T07:38:47;20.80;99.90
14172;DHT22;7165;52.388;4.928;2023-09-12T07:41:15;20.90;99.90
14172;DHT22;7165;52.388;4.928;2023-09-12T07:43:41;21.00;99.90
14172;DHT22;7165;52.388;4.928;2023-09-12T07:46:09;21.10;99.90
14172;DHT22;7165;52.388;4.928;2023-09-12T07:48:35;21.20;99.90
14172;DHT22;7165;52.388;4.928;2023-09-12T07:51:06;21.20;99.90
14172;DHT22;7165;52.388;4.928;2023-09-12T07:53:36;21.40;99.90
14172;DHT22;7165;52.388;4.928;2023-09-12T07:56:03;21.40;99.90
14172;DHT22;7165;52.388;4.928;2023-09-12T07:58:30;21.50;99.90
14172;DHT22;7165;52.388;4.928;2023-09-12T08:00:56;21.60;99.90
14172;DHT22;7165;52.388;4.928;2023-09-12T08:03:24;21.70;99.90
14172;DHT22;7165;52.388;4.928;2023-09-12T08:05:54;21.80;99.90
14172;DHT22;7165;52.388;4.928;2023-09-12T08:08:21;22.00;99.90
14172;DHT22;7165;52.388;4.928;2023-09-12T08:10:48;22.00;99.90
14172;DHT22;7165;52.388;4.928;2023-09-12T08:13:14;22.00;99.90
14172;DHT22;7165;52.388;4.928;2023-09-12T08:15:41;22.10;99.90
14172;DHT22;7165;52.388;4.928;2023-09-12T08:18:07;22.10;99.90
14172;DHT22;7165;52.388;4.928;2023-09-12T08:20:35;22.10;99.90
14172;DHT22;7165;52.388;4.928;2023-09-12T08:23:02;22.10;99.90
14172;DHT22;7165;52.388;4.928;2023-09-12T08:25:28;22.20;99.90
14172;DHT22;7165;52.388;4.928;2023-09-12T08:27:55;22.20;99.90
14172;DHT22;7165;52.388;4.928;2023-09-12T08:30:21;22.20;99.90
14172;DHT22;7165;52.388;4.928;2023-09-12T08:32:48;22.30;99.90
14172;DHT22;7165;52.388;4.928;2023-09-12T08:35:15;22.30;99.90
14172;DHT22;7165;52.388;4.928;2023-09-12T08:37:43;22.30;99.90
14172;DHT22;7165;52.388;4.928;2023-09-12T08:40:10;22.40;99.90
14172;DHT22;7165;52.388;4.928;2023-09-12T08:42:38;22.60;99.90
14172;DHT22;7165;52.388;4.928;2023-09-12T08:45:06;22.70;99.90
14172;DHT22;7165;52.388;4.928;2023-09-12T08:47:33;22.70;99.90
14172;DHT22;7165;52.388;4.928;2023-09-12T08:50:01;22.70;99.90
14172;DHT22;7165;52.388;4.928;2023-09-12T08:52:29;22.70;99.90
14172;DHT22;7165;52.388;4.928;2023-09-12T08:54:56;22.70;99.90
14172;DHT22;7165;52.388;4.928;2023-09-12T08:57:23;22.70;99.90
14172;DHT22;7165;52.388;4.928;2023-09-12T08:59:50;22.60;99.90
14172;DHT22;7165;52.388;4.928;2023-09-12T09:02:17;22.70;99.90
14172;DHT22;7165;52.388;4.928;2023-09-12T09:04:45;22.80;99.90
14172;DHT22;7165;52.388;4.928;2023-09-12T09:07:12;22.80;99.90
14172;DHT22;7165;52.388;4.928;2023-09-12T09:09:39;22.90;99.90
14172;DHT22;7165;52.388;4.928;2023-09-12T09:12:08;22.90;99.90
14172;DHT22;7165;52.388;4.928;2023-09-12T09:14:36;23.00;99.90
14172;DHT22;7165;52.388;4.928;2023-09-12T09:17:02;23.10;99.90
14172;DHT22;7165;52.388;4.928;2023-09-12T09:19:39;23.00;99.90
14172;DHT22;7165;52.388;4.928;2023-09-12T09:22:07;22.90;99.90
14172;DHT22;7165;52.388;4.928;2023-09-12T09:24:33;22.90;99.90
14172;DHT22;7165;52.388;4.928;2023-09-12T09:27:00;22.90;99.90
14172;DHT22;7165;52.388;4.928;2023-09-12T09:29:28;22.90;99.90
14172;DHT22;7165;52.388;4.928;2023-09-12T09:31:57;23.00;99.90
14172;DHT22;7165;52.388;4.928;2023-09-12T09:34:24;23.00;99.90
14172;DHT22;7165;52.388;4.928;2023-09-12T09:36:53;23.20;99.90
14172;DHT22;7165;52.388;4.928;2023-09-12T09:39:20;23.20;99.90
14172;DHT22;7165;52.388;4.928;2023-09-12T09:41:47;23.40;99.90
14172;DHT22;7165;52.388;4.928;2023-09-12T09:44:14;23.40;99.90
14172;DHT22;7165;52.388;4.928;2023-09-12T09:46:44;23.40;99.90
14172;DHT22;7165;52.388;4.928;2023-09-12T09:49:10;23.40;99.90
14172;DHT22;7165;52.388;4.928;2023-09-12T09:51:40;23.50;99.90
14172;DHT22;7165;52.388;4.928;2023-09-12T09:54:07;23.60;99.90
14172;DHT22;7165;52.388;4.928;2023-09-12T09:56:34;23.60;99.90
14172;DHT22;7165;52.388;4.928;2023-09-12T09:59:13;23.80;99.90
14172;DHT22;7165;52.388;4.928;2023-09-12T10:01:40;23.90;99.90
14172;DHT22;7165;52.388;4.928;2023-09-12T10:04:08;24.00;99.90
14172;DHT22;7165;52.388;4.928;2023-09-12T10:06:35;24.40;99.90
14172;DHT22;7165;52.388;4.928;2023-09-12T10:09:02;24.60;99.90
14172;DHT22;7165;52.388;4.928;2023-09-12T10:11:32;24.70;99.90
14172;DHT22;7165;52.388;4.928;2023-09-12T10:13:59;25.00;99.90
14172;DHT22;7165;52.388;4.928;2023-09-12T10:16:28;25.20;99.90
14172;DHT22;7165;52.388;4.928;2023-09-12T10:18:57;25.30;99.90
14172;DHT22;7165;52.388;4.928;2023-09-12T10:21:27;25.20;99.90
14172;DHT22;7165;52.388;4.928;2023-09-12T10:23:54;25.20;99.90
14172;DHT22;7165;52.388;4.928;2023-09-12T10:26:22;25.10;99.90
14172;DHT22;7165;52.388;4.928;2023-09-12T10:28:49;25.00;99.90
14172;DHT22;7165;52.388;4.928;2023-09-12T10:31:17;24.90;99.90
14172;DHT22;7165;52.388;4.928;2023-09-12T10:33:44;24.80;99.90
14172;DHT22;7165;52.388;4.928;2023-09-12T10:36:11;24.70;99.90
14172;DHT22;7165;52.388;4.928;2023-09-12T10:38:40;24.70;99.90
14172;DHT22;7165;52.388;4.928;2023-09-12T10:41:09;24.80;99.90
14172;DHT22;7165;52.388;4.928;2023-09-12T10:43:36;24.80;99.90
14172;DHT22;7165;52.388;4.928;2023-09-12T10:46:03;24.80;99.90
14172;DHT22;7165;52.388;4.928;2023-09-12T10:48:30;24.80;99.90
14172;DHT22;7165;52.388;4.928;2023-09-12T10:50:57;24.80;99.90
14172;DHT22;7165;52.388;4.928;2023-09-12T10:53:25;24.70;99.90
14172;DHT22;7165;52.388;4.928;2023-09-12T10:56:01;24.70;99.90
14172;DHT22;7165;52.388;4.928;2023-09-12T11:01:21;24.90;99.90
14172;DHT22;7165;52.388;4.928;2023-09-12T11:03:48;25.10;99.90
14172;DHT22;7165;52.388;4.928;2023-09-12T11:06:21;25.10;99.90
14172;DHT22;7165;52.388;4.928;2023-09-12T11:11:34;25.10;99.90
14172;DHT22;7165;52.388;4.928;2023-09-12T11:14:04;25.10;99.90
14172;DHT22;7165;52.388;4.928;2023-09-12T11:16:30;25.30;99.90
14172;DHT22;7165;52.388;4.928;2023-09-12T11:19:13;25.50;99.90
14172;DHT22;7165;52.388;4.928;2023-09-12T11:21:40;25.40;99.90
14172;DHT22;7165;52.388;4.928;2023-09-12T11:24:07;25.10;99.90
14172;DHT22;7165;52.388;4.928;2023-09-12T11:26:35;24.90;99.90
14172;DHT22;7165;52.388;4.928;2023-09-12T11:29:20;24.70;99.90
14172;DHT22;7165;52.388;4.928;2023-09-12T11:31:51;24.60;99.90
14172;DHT22;7165;52.388;4.928;2023-09-12T11:34:18;24.50;99.90
14172;DHT22;7165;52.388;4.928;2023-09-12T11:36:45;24.50;99.90
14172;DHT22;7165;52.388;4.928;2023-09-12T11:39:22;24.40;99.90
14172;DHT22;7165;52.388;4.928;2023-09-12T11:41:50;24.30;99.90
14172;DHT22;7165;52.388;4.928;2023-09-12T11:44:16;24.20;99.90
14172;DHT22;7165;52.388;4.928;2023-09-12T11:46:43;24.20;99.90
14172;DHT22;7165;52.388;4.928;2023-09-12T11:49:12;24.20;99.90
14172;DHT22;7165;52.388;4.928;2023-09-12T11:51:45;24.30;99.90
14172;DHT22;7165;52.388;4.928;2023-09-12T11:54:13;24.40;99.90
14172;DHT22;7165;52.388;4.928;2023-09-12T11:56:40;24.50;99.90
14172;DHT22;7165;52.388;4.928;2023-09-12T11:59:08;24.70;99.90
14172;DHT22;7165;52.388;4.928;2023-09-12T12:01:35;24.80;99.90
14172;DHT22;7165;52.388;4.928;2023-09-12T12:04:02;24.90;99.90
14172;DHT22;7165;52.388;4.928;2023-09-12T12:06:28;25.10;99.90
14172;DHT22;7165;52.388;4.928;2023-09-12T12:08:56;25.30;99.90
14172;DHT22;7165;52.388;4.928;2023-09-12T12:11:22;25.30;99.90
14172;DHT22;7165;52.388;4.928;2023-09-12T12:13:53;25.30;99.90
14172;DHT22;7165;52.388;4.928;2023-09-12T12:16:21;25.10;99.90
14172;DHT22;7165;52.388;4.928;2023-09-12T12:18:47;25.10;99.90
14172;DHT22;7165;52.388;4.928;2023-09-12T12:21:19;25.00;99.90
14172;DHT22;7165;52.388;4.928;2023-09-12T12:23:46;25.00;99.90
14172;DHT22;7165;52.388;4.928;2023-09-12T12:26:12;25.00;99.90
14172;DHT22;7165;52.388;4.928;2023-09-12T12:28:39;24.90;99.90
14172;DHT22;7165;52.388;4.928;2023-09-12T12:31:06;24.80;99.90
14172;DHT22;7165;52.388;4.928;2023-09-12T12:33:34;24.80;99.90
14172;DHT22;7165;52.388;4.928;2023-09-12T12:36:01;24.70;99.90
14172;DHT22;7165;52.388;4.928;2023-09-12T12:38:28;24.60;99.90
14172;DHT22;7165;52.388;4.928;2023-09-12T12:40:57;24.50;99.90
14172;DHT22;7165;52.388;4.928;2023-09-12T12:43:23;24.50;99.90
14172;DHT22;7165;52.388;4.928;2023-09-12T12:45:53;24.40;99.90
14172;DHT22;7165;52.388;4.928;2023-09-12T12:48:29;24.40;99.90
14172;DHT22;7165;52.388;4.928;2023-09-12T12:50:57;24.30;99.90
14172;DHT22;7165;52.388;4.928;2023-09-12T12:53:36;24.20;99.90
14172;DHT22;7165;52.388;4.928;2023-09-12T12:56:03;24.10;99.90
14172;DHT22;7165;52.388;4.928;2023-09-12T12:58:29;24.10;99.90
14172;DHT22;7165;52.388;4.928;2023-09-12T13:00:56;24.10;99.90
14172;DHT22;7165;52.388;4.928;2023-09-12T13:03:22;24.10;99.90
14172;DHT22;7165;52.388;4.928;2023-09-12T13:05:49;24.10;99.90
14172;DHT22;7165;52.388;4.928;2023-09-12T13:08:17;24.20;99.90
14172;DHT22;7165;52.388;4.928;2023-09-12T13:10:43;24.20;99.90
14172;DHT22;7165;52.388;4.928;2023-09-12T13:13:10;24.20;99.90
14172;DHT22;7165;52.388;4.928;2023-09-12T13:15:37;24.20;99.90
14172;DHT22;7165;52.388;4.928;2023-09-12T13:18:03;24.30;99.90
14172;DHT22;7165;52.388;4.928;2023-09-12T13:20:30;24.40;99.90
14172;DHT22;7165;52.388;4.928;2023-09-12T13:22:57;24.50;99.90
14172;DHT22;7165;52.388;4.928;2023-09-12T13:25:25;24.70;99.90
14172;DHT22;7165;52.388;4.928;2023-09-12T13:27:51;24.70;99.90
14172;DHT22;7165;52.388;4.928;2023-09-12T13:30:18;24.70;99.90
14172;DHT22;7165;52.388;4.928;2023-09-12T13:32:44;24.70;99.90
14172;DHT22;7165;52.388;4.928;2023-09-12T13:35:12;24.60;99.90
14172;DHT22;7165;52.388;4.928;2023-09-12T13:37:38;24.50;99.90
14172;DHT22;7165;52.388;4.928;2023-09-12T13:40:05;24.40;99.90
14172;DHT22;7165;52.388;4.928;2023-09-12T13:42:35;24.20;99.90
14172;DHT22;7165;52.388;4.928;2023-09-12T13:45:02;24.10;99.90
14172;DHT22;7165;52.388;4.928;2023-09-12T13:47:28;24.00;99.90
14172;DHT22;7165;52.388;4.928;2023-09-12T13:49:55;24.00;99.90
14172;DHT22;7165;52.388;4.928;2023-09-12T13:52:22;23.90;99.90
14172;DHT22;7165;52.388;4.928;2023-09-12T13:54:48;23.70;99.90
14172;DHT22;7165;52.388;4.928;2023-09-12T13:57:15;23.60;99.90
14172;DHT22;7165;52.388;4.928;2023-09-12T13:59:43;23.50;99.90
14172;DHT22;7165;52.388;4.928;2023-09-12T14:02:09;23.40;99.90
14172;DHT22;7165;52.388;4.928;2023-09-12T14:04:36;23.30;99.90
14172;DHT22;7165;52.388;4.928;2023-09-12T14:07:03;23.20;99.90
14172;DHT22;7165;52.388;4.928;2023-09-12T14:09:29;23.10;99.90
14172;DHT22;7165;52.388;4.928;2023-09-12T14:11:56;23.00;99.90
14172;DHT22;7165;52.388;4.928;2023-09-12T14:14:22;22.90;99.90
14172;DHT22;7165;52.388;4.928;2023-09-12T14:16:50;22.70;99.90
14172;DHT22;7165;52.388;4.928;2023-09-12T14:19:17;22.60;99.90
14172;DHT22;7165;52.388;4.928;2023-09-12T14:21:43;22.40;99.90
14172;DHT22;7165;52.388;4.928;2023-09-12T14:24:10;22.30;99.90
14172;DHT22;7165;52.388;4.928;2023-09-12T14:26:37;22.10;99.90
14172;DHT22;7165;52.388;4.928;2023-09-12T14:29:03;22.10;99.90
14172;DHT22;7165;52.388;4.928;2023-09-12T14:31:30;22.10;99.90
14172;DHT22;7165;52.388;4.928;2023-09-12T14:33:58;22.20;99.90
14172;DHT22;7165;52.388;4.928;2023-09-12T14:36:24;22.20;99.90
14172;DHT22;7165;52.388;4.928;2023-09-12T14:38:51;22.30;99.90
14172;DHT22;7165;52.388;4.928;2023-09-12T14:41:17;22.30;99.90
14172;DHT22;7165;52.388;4.928;2023-09-12T14:43:44;22.30;99.90
14172;DHT22;7165;52.388;4.928;2023-09-12T14:46:10;22.40;99.90
14172;DHT22;7165;52.388;4.928;2023-09-12T14:48:37;22.50;99.90
14172;DHT22;7165;52.388;4.928;2023-09-12T14:51:05;22.60;99.90
14172;DHT22;7165;52.388;4.928;2023-09-12T14:53:32;22.60;99.90
14172;DHT22;7165;52.388;4.928;2023-09-12T14:55:58;22.70;99.90
14172;DHT22;7165;52.388;4.928;2023-09-12T14:58:25;22.70;99.90
14172;DHT22;7165;52.388;4.928;2023-09-12T15:00:51;22.70;99.90
14172;DHT22;7165;52.388;4.928;2023-09-12T15:03:18;22.60;99.90
14172;DHT22;7165;52.388;4.928;2023-09-12T15:05:44;22.40;99.90
14172;DHT22;7165;52.388;4.928;2023-09-12T15:08:12;22.30;99.90
14172;DHT22;7165;52.388;4.928;2023-09-12T15:10:39;22.10;99.90
14172;DHT22;7165;52.388;4.928;2023-09-12T15:13:05;22.00;99.90
14172;DHT22;7165;52.388;4.928;2023-09-12T15:15:32;21.90;99.90
14172;DHT22;7165;52.388;4.928;2023-09-12T15:17:59;21.90;99.90
14172;DHT22;7165;52.388;4.928;2023-09-12T15:20:26;21.80;99.90
14172;DHT22;7165;52.388;4.928;2023-09-12T15:22:53;21.70;99.90
14172;DHT22;7165;52.388;4.928;2023-09-12T15:25:21;21.70;99.90
14172;DHT22;7165;52.388;4.928;2023-09-12T15:27:47;21.70;99.90
14172;DHT22;7165;52.388;4.928;2023-09-12T15:30:14;21.70;99.90
14172;DHT22;7165;52.388;4.928;2023-09-12T15:32:41;21.70;99.90
14172;DHT22;7165;52.388;4.928;2023-09-12T15:35:07;21.80;99.90
14172;DHT22;7165;52.388;4.928;2023-09-12T15:37:36;21.80;99.90
14172;DHT22;7165;52.388;4.928;2023-09-12T15:40:02;21.80;99.90
14172;DHT22;7165;52.388;4.928;2023-09-12T15:42:31;21.80;99.90
14172;DHT22;7165;52.388;4.928;2023-09-12T15:44:58;21.70;99.90
14172;DHT22;7165;52.388;4.928;2023-09-12T15:47:24;21.70;99.90
14172;DHT22;7165;52.388;4.928;2023-09-12T15:49:51;21.80;99.90